createdAt,value
2022-12-27T00:01:43.443Z,28.20
2022-12-27T00:05:07.022Z,28.30
2022-12-27T00:08:28.601Z,30.63
2022-12-27T00:11:58.017Z,29.33
2022-12-27T00:15:21.815Z,86.07
2022-12-27T00:18:43.875Z,38.90
2022-12-27T00:22:05.515Z,28.37
2022-12-27T00:25:27.135Z,28.60
2022-12-27T00:28:49.369Z,28.53
2022-12-27T00:32:10.955Z,27.63
2022-12-27T00:35:32.547Z,27.60
2022-12-27T00:38:54.634Z,27.03
2022-12-27T00:42:18.558Z,40.07
2022-12-27T00:45:44.007Z,27.83
2022-12-27T00:49:08.323Z,28.00
2022-12-27T00:52:29.873Z,27.63
2022-12-27T00:55:51.691Z,26.70
2022-12-27T00:59:15.591Z,26.23
2022-12-27T01:02:39.996Z,25.57
2022-12-27T01:06:14.539Z,25.50
2022-12-27T01:09:36.139Z,25.70
2022-12-27T01:12:57.969Z,26.20
2022-12-27T01:16:22.303Z,26.37
2022-12-27T01:19:43.955Z,26.83
2022-12-27T01:23:05.567Z,52.07
2022-12-27T01:26:27.167Z,25.57
2022-12-27T01:29:48.811Z,25.00
2022-12-27T01:33:10.388Z,24.87
2022-12-27T01:36:34.064Z,24.73
2022-12-27T01:39:58.109Z,23.63
2022-12-27T01:43:19.792Z,24.60
2022-12-27T01:46:41.506Z,24.67
2022-12-27T01:50:21.866Z,24.80
2022-12-27T01:53:48.932Z,23.43
2022-12-27T01:57:14.317Z,23.87
2022-12-27T02:00:36.014Z,22.90
2022-12-27T02:04:07.488Z,23.43
2022-12-27T02:07:40.967Z,22.87
2022-12-27T02:11:03.865Z,22.50
2022-12-27T02:14:34.467Z,23.37
2022-12-27T02:17:56.497Z,23.33
2022-12-27T02:21:38.651Z,20.50
2022-12-27T02:25:20.381Z,18.13
2022-12-27T02:29:05.389Z,19.63
2022-12-27T02:32:37.887Z,16.70
2022-12-27T02:36:12.323Z,13.03
2022-12-27T02:39:38.261Z,10.47
2022-12-27T02:43:18.904Z,9.37
2022-12-27T02:46:59.464Z,7.93
2022-12-27T02:50:39.835Z,14.87
2022-12-27T02:54:34.457Z,15.95
2022-12-27T02:58:14.715Z,16.73
2022-12-27T03:02:10.244Z,17.42
2022-12-27T03:06:32.260Z,19.08
2022-12-27T03:10:18.380Z,19.57
2022-12-27T03:14:05.333Z,20.10
2022-12-27T03:17:37.196Z,19.47
2022-12-27T03:21:18.633Z,19.27
2022-12-27T03:24:59.890Z,20.27
2022-12-27T03:28:44.769Z,19.77
2022-12-27T03:32:28.614Z,20.43
2022-12-27T03:36:28.928Z,19.80
2022-12-27T03:40:18.337Z,19.17
2022-12-27T03:43:40.797Z,20.33
2022-12-27T03:47:18.473Z,20.03
2022-12-27T03:50:57.348Z,19.67
2022-12-27T03:54:26.649Z,19.45
2022-12-27T03:57:48.455Z,19.93
2022-12-27T04:01:10.069Z,21.27
2022-12-27T04:04:31.688Z,21.23
2022-12-27T04:08:11.814Z,20.97
2022-12-27T04:11:52.323Z,21.40
2022-12-27T04:15:32.679Z,19.50
2022-12-27T04:19:12.541Z,20.00
2022-12-27T04:22:52.986Z,19.60
2022-12-27T04:26:33.212Z,18.60
2022-12-27T04:30:13.793Z,19.33
2022-12-27T04:33:54.085Z,19.27
2022-12-27T04:37:19.814Z,18.20
2022-12-27T04:40:59.785Z,18.20
2022-12-27T04:44:40.066Z,17.87
2022-12-27T04:48:20.145Z,18.77
2022-12-27T04:52:20.249Z,16.27
2022-12-27T04:55:44.543Z,16.77
2022-12-27T04:59:24.904Z,17.23
2022-12-27T05:02:49.215Z,17.77
2022-12-27T05:06:11.439Z,26.00
2022-12-27T05:09:51.846Z,33.17
2022-12-27T05:13:32.028Z,19.00
2022-12-27T05:16:53.637Z,12.80
2022-12-27T05:20:15.311Z,13.23
2022-12-27T05:24:00.217Z,11.87
2022-12-27T05:27:27.552Z,10.70
2022-12-27T05:30:49.149Z,10.20
2022-12-27T05:34:13.592Z,9.27
2022-12-27T05:37:35.265Z,8.90
2022-12-27T05:41:01.618Z,21.73
2022-12-27T05:44:23.198Z,14.33
2022-12-27T05:47:47.127Z,8.07
2022-12-27T05:51:14.391Z,6.27
2022-12-27T05:54:36.001Z,5.77
2022-12-27T05:57:57.586Z,6.57
2022-12-27T06:01:19.437Z,6.90
2022-12-27T06:04:43.488Z,6.57
2022-12-27T06:08:05.387Z,5.50
2022-12-27T06:11:29.447Z,4.23
2022-12-27T06:14:51.038Z,5.25
2022-12-27T06:18:12.599Z,3.97
2022-12-27T06:21:34.372Z,3.43
2022-12-27T06:24:56.003Z,2.90
2022-12-27T06:28:17.559Z,3.67
2022-12-27T06:31:42.163Z,11.10
2022-12-27T06:35:04.757Z,9.57
2022-12-27T06:38:26.386Z,6.47
2022-12-27T06:41:48.051Z,4.80
2022-12-27T06:45:10.145Z,4.70
2022-12-27T06:48:32.280Z,4.95
2022-12-27T06:51:59.705Z,4.37
2022-12-27T06:55:21.710Z,3.33
2022-12-27T06:58:43.410Z,1.90
2022-12-27T07:02:05.139Z,1.50
2022-12-27T07:05:26.823Z,1.20
2022-12-27T07:08:51.472Z,1.20
2022-12-27T07:12:13.042Z,1.20
2022-12-27T07:15:37.649Z,1.30
2022-12-27T07:19:00.123Z,2.23
2022-12-27T07:22:24.042Z,1.13
2022-12-27T07:25:48.371Z,1.57
2022-12-27T07:29:10.090Z,1.92
2022-12-27T07:32:33.830Z,0.90
2022-12-27T07:36:00.649Z,1.05
2022-12-27T07:39:24.807Z,1.00
2022-12-27T07:42:46.445Z,1.02
2022-12-27T07:46:14.256Z,1.10
2022-12-27T07:49:35.858Z,0.90
2022-12-27T07:52:57.451Z,1.05
2022-12-27T07:56:26.643Z,0.77
2022-12-27T07:59:48.602Z,1.02
2022-12-27T08:03:10.260Z,0.82
2022-12-27T08:06:37.104Z,1.08
2022-12-27T08:09:58.707Z,1.10
2022-12-27T08:13:20.284Z,0.93
2022-12-27T08:16:43.999Z,1.10
2022-12-27T08:20:06.104Z,0.88
2022-12-27T08:23:30.197Z,0.80
2022-12-27T08:26:53.860Z,0.80
2022-12-27T08:30:15.573Z,0.73
2022-12-27T08:33:38.080Z,0.80
2022-12-27T08:37:00.001Z,1.10
2022-12-27T08:40:21.939Z,1.52
2022-12-27T08:43:43.548Z,0.80
2022-12-27T08:47:07.481Z,1.05
2022-12-27T08:50:30.408Z,0.80
2022-12-27T08:53:52.580Z,0.73
2022-12-27T08:57:14.334Z,0.68
2022-12-27T09:00:35.980Z,0.73
2022-12-27T09:03:57.658Z,0.65
2022-12-27T09:07:19.306Z,0.98
2022-12-27T09:10:40.973Z,1.00
2022-12-27T09:14:04.989Z,0.55
2022-12-27T09:17:26.590Z,0.80
2022-12-27T09:20:48.174Z,0.80
2022-12-27T09:24:13.827Z,0.73
2022-12-27T09:27:38.552Z,1.17
2022-12-27T09:31:00.523Z,0.60
2022-12-27T09:34:24.623Z,0.60
2022-12-27T09:37:46.774Z,0.75
2022-12-27T09:42:34.136Z,0.70
2022-12-27T09:45:34.247Z,0.80
2022-12-27T09:48:56.503Z,0.95
2022-12-27T09:52:22.767Z,0.50
2022-12-27T09:55:53.109Z,0.77
2022-12-27T09:59:29.416Z,0.80
2022-12-27T10:02:54.334Z,0.70
2022-12-27T10:07:04.665Z,0.80
2022-12-27T10:10:50.753Z,0.80
2022-12-27T10:14:27.333Z,0.95
2022-12-27T10:18:07.340Z,1.50
2022-12-27T10:21:34.176Z,1.00
2022-12-27T10:24:59.150Z,0.80
2022-12-27T10:28:29.030Z,0.80
2022-12-27T10:31:53.239Z,1.35
2022-12-27T10:35:18.434Z,0.63
2022-12-27T10:38:40.112Z,0.85
2022-12-27T10:42:29.520Z,0.93
2022-12-27T10:45:51.301Z,0.82
2022-12-27T10:49:29.464Z,0.95
2022-12-27T10:52:57.326Z,0.88
2022-12-27T10:56:29.639Z,0.80
2022-12-27T11:00:22.818Z,1.05
2022-12-27T11:03:44.634Z,0.90
2022-12-27T11:07:18.593Z,1.33
2022-12-27T11:10:42.544Z,1.00
2022-12-27T11:14:20.961Z,0.88
2022-12-27T11:17:48.584Z,1.63
2022-12-27T11:21:22.524Z,1.88
2022-12-27T11:24:50.557Z,0.90
2022-12-27T11:28:40.920Z,1.20
2022-12-27T11:32:08.916Z,2.40
2022-12-27T11:35:32.394Z,1.15
2022-12-27T11:38:54.068Z,1.13
2022-12-27T11:42:38.501Z,1.13
2022-12-27T11:46:03.981Z,1.10
2022-12-27T11:49:40.316Z,1.02
2022-12-27T11:53:10.897Z,1.05
2022-12-27T11:56:35.863Z,1.27
2022-12-27T12:00:03.579Z,0.90
2022-12-27T12:03:34.294Z,1.23
2022-12-27T12:07:17.552Z,1.20
2022-12-27T12:10:53.126Z,1.30
2022-12-27T12:14:42.154Z,1.00
2022-12-27T12:21:32.745Z,1.33
2022-12-27T12:25:23.601Z,0.88
2022-12-27T12:29:14.462Z,1.00
2022-12-27T12:32:47.915Z,1.05
2022-12-27T12:36:14.560Z,1.10
2022-12-27T12:40:01.954Z,0.90
2022-12-27T12:43:43.767Z,0.90
2022-12-27T12:47:10.943Z,1.00
2022-12-27T12:50:57.123Z,1.10
2022-12-27T12:54:46.220Z,1.08
2022-12-27T13:02:04.059Z,1.00
2022-12-27T13:05:44.156Z,0.90
2022-12-27T13:09:26.420Z,1.00
2022-12-27T13:12:53.292Z,0.93
2022-12-27T13:16:36.773Z,0.95
2022-12-27T13:20:01.362Z,0.93
2022-12-27T13:23:46.221Z,0.90
2022-12-27T13:27:43.184Z,0.90
2022-12-27T13:31:09.584Z,1.17
2022-12-27T13:34:49.189Z,1.10
2022-12-27T13:38:40.521Z,6.68
2022-12-27T13:42:11.759Z,0.80
2022-12-27T13:45:52.147Z,1.00
2022-12-27T13:49:16.466Z,1.10
2022-12-27T13:53:00.195Z,0.90
2022-12-27T13:56:54.362Z,0.98
2022-12-27T14:00:19.052Z,1.17
2022-12-27T14:03:56.017Z,1.40
2022-12-27T14:07:43.694Z,1.77
2022-12-27T14:11:54.060Z,1.50
2022-12-27T14:15:20.754Z,1.00
2022-12-27T14:19:00.793Z,1.60
2022-12-27T14:23:02.692Z,1.20
2022-12-27T14:26:48.458Z,1.23
2022-12-27T14:30:37.167Z,1.67
2022-12-27T14:34:39.920Z,4.95
2022-12-27T14:38:38.351Z,1.30
2022-12-27T14:42:20.769Z,1.30
2022-12-27T14:45:57.605Z,1.23
2022-12-27T14:49:46.456Z,1.40
2022-12-27T14:53:45.430Z,1.77
2022-12-27T14:57:33.330Z,1.45
2022-12-27T15:01:26.234Z,1.55
2022-12-27T15:05:22.516Z,1.10
2022-12-27T15:08:53.136Z,1.90
2022-12-27T15:12:26.378Z,1.70
2022-12-27T15:15:50.552Z,0.98
2022-12-27T15:19:31.640Z,1.40
2022-12-27T15:23:40.839Z,1.55
2022-12-27T15:27:33.868Z,1.58
2022-12-27T15:31:08.772Z,3.30
2022-12-27T15:34:51.509Z,1.20
2022-12-27T15:38:19.665Z,1.23
2022-12-27T15:41:50.780Z,7.20
2022-12-27T15:45:27.300Z,15.20
2022-12-27T15:49:30.675Z,7.50
2022-12-27T15:52:57.493Z,1.67
2022-12-27T15:56:38.084Z,1.20
2022-12-27T16:00:24.085Z,1.47
2022-12-27T16:03:48.317Z,1.50
2022-12-27T16:07:39.572Z,1.53
2022-12-27T16:11:09.753Z,1.53
2022-12-27T16:14:37.050Z,1.60
2022-12-27T16:17:58.733Z,2.20
2022-12-27T16:21:23.325Z,2.33
2022-12-27T16:24:48.653Z,1.80
2022-12-27T16:28:16.308Z,2.00
2022-12-27T16:31:45.958Z,2.30
2022-12-27T16:35:17.857Z,2.20
2022-12-27T16:38:48.481Z,1.70
2022-12-27T16:42:10.338Z,1.60
2022-12-27T16:45:37.844Z,3.07
2022-12-27T16:49:25.525Z,2.33
2022-12-27T16:53:08.098Z,1.93
2022-12-27T16:56:34.523Z,1.90
2022-12-27T17:00:11.976Z,32.80
2022-12-27T17:03:36.245Z,2.33
2022-12-27T17:06:58.164Z,1.50
2022-12-27T17:10:30.178Z,1.73
2022-12-27T17:14:00.677Z,2.50
2022-12-27T17:17:27.361Z,3.97
2022-12-27T17:21:00.639Z,2.30
2022-12-27T17:24:25.073Z,2.00
2022-12-27T17:27:55.958Z,2.37
2022-12-27T17:31:43.015Z,2.00
2022-12-27T17:35:29.217Z,1.70
2022-12-27T17:39:04.271Z,2.10
2022-12-27T17:42:53.974Z,2.73
2022-12-27T17:49:40.500Z,17.43
2022-12-27T17:53:29.748Z,13.17
2022-12-27T17:57:19.275Z,2.10
2022-12-27T18:00:56.386Z,1.83
2022-12-27T18:04:30.758Z,1.83
2022-12-27T18:08:01.138Z,2.40
2022-12-27T18:11:30.048Z,3.30
2022-12-27T18:15:01.985Z,2.67
2022-12-27T18:18:34.633Z,2.33
2022-12-27T18:22:00.991Z,2.77
2022-12-27T18:25:30.267Z,4.13
2022-12-27T18:28:54.512Z,4.20
2022-12-27T18:32:18.871Z,3.23
2022-12-27T18:35:46.820Z,3.07
2022-12-27T18:39:27.019Z,3.30
2022-12-27T18:42:51.292Z,2.20
2022-12-27T18:46:33.812Z,4.80
2022-12-27T18:50:05.804Z,4.90
2022-12-27T18:53:37.842Z,4.03
2022-12-27T18:57:04.182Z,4.30
2022-12-27T19:00:29.375Z,4.50
2022-12-27T19:04:18.820Z,4.93
2022-12-27T19:07:40.480Z,4.63
2022-12-27T19:11:02.971Z,4.63
2022-12-27T19:14:26.530Z,5.07
2022-12-27T19:17:53.028Z,4.77
2022-12-27T19:21:16.428Z,3.77
2022-12-27T19:24:37.971Z,3.40
2022-12-27T19:28:26.881Z,4.47
2022-12-27T19:32:09.175Z,4.23
2022-12-27T19:35:31.336Z,3.60
2022-12-27T19:38:53.840Z,4.03
2022-12-27T19:42:26.002Z,5.17
2022-12-27T19:45:48.098Z,5.60
2022-12-27T19:52:52.300Z,8.20
2022-12-27T19:56:13.906Z,10.40
2022-12-27T19:59:35.452Z,7.33
2022-12-27T20:02:57.133Z,8.17
2022-12-27T20:06:24.050Z,9.77
2022-12-27T20:09:49.516Z,5.13
2022-12-27T20:13:11.085Z,4.83
2022-12-27T20:16:35.370Z,4.37
2022-12-27T20:19:56.920Z,4.30
2022-12-27T20:23:19.599Z,4.10
2022-12-27T20:26:44.037Z,4.73
2022-12-27T20:30:06.301Z,4.93
2022-12-27T20:33:30.352Z,4.67
2022-12-27T20:36:57.463Z,5.00
2022-12-27T20:40:19.287Z,5.10
2022-12-27T20:43:41.548Z,4.87
2022-12-27T20:47:03.140Z,4.83
2022-12-27T20:50:25.277Z,4.67
2022-12-27T20:53:50.601Z,5.63
2022-12-27T20:57:12.462Z,4.60
2022-12-27T21:00:40.977Z,5.20
2022-12-27T21:04:02.579Z,5.13
2022-12-27T21:07:24.259Z,5.43
2022-12-27T21:10:49.403Z,5.20
2022-12-27T21:14:13.403Z,5.33
2022-12-27T21:17:37.682Z,5.20
2022-12-27T21:21:04.126Z,5.17
2022-12-27T21:24:25.812Z,4.83
2022-12-27T21:27:50.354Z,5.57
2022-12-27T21:31:13.703Z,5.43
2022-12-27T21:34:38.092Z,5.47
2022-12-27T21:38:02.162Z,5.30
2022-12-27T21:41:28.779Z,5.43
2022-12-27T21:44:50.387Z,5.83
2022-12-27T21:48:14.181Z,6.00
2022-12-27T21:51:40.148Z,5.57
2022-12-27T21:55:01.726Z,5.90
2022-12-27T21:58:26.036Z,5.57
2022-12-27T22:01:52.036Z,5.40
2022-12-27T22:05:14.370Z,5.77
2022-12-27T22:08:35.964Z,6.20
2022-12-27T22:12:00.373Z,6.37
2022-12-27T22:15:26.026Z,4.97
2022-12-27T22:18:49.724Z,5.60
2022-12-27T22:22:11.274Z,5.03
2022-12-27T22:25:32.881Z,5.50
2022-12-27T22:28:54.854Z,6.20
2022-12-27T22:32:18.881Z,5.63
2022-12-27T22:35:43.220Z,5.37
2022-12-27T22:39:08.083Z,5.77
2022-12-27T22:42:30.416Z,5.37
2022-12-27T22:45:54.000Z,5.27
2022-12-27T22:49:15.746Z,6.07
2022-12-27T22:52:37.357Z,5.93
2022-12-27T22:55:59.081Z,5.20
2022-12-27T22:59:20.648Z,5.17
2022-12-27T23:02:42.386Z,6.20
2022-12-27T23:06:06.599Z,6.23
2022-12-27T23:09:30.738Z,35.30
2022-12-27T23:12:52.406Z,11.80
2022-12-27T23:16:14.007Z,7.77
2022-12-27T23:19:35.837Z,7.67
2022-12-27T23:22:57.401Z,7.30
2022-12-27T23:26:23.022Z,7.87
2022-12-27T23:29:44.625Z,8.13
2022-12-27T23:33:06.319Z,7.33
2022-12-27T23:36:27.865Z,7.87
2022-12-27T23:39:54.192Z,8.87
2022-12-27T23:43:50.508Z,7.00
2022-12-27T23:46:57.438Z,9.57
2022-12-27T23:50:21.140Z,8.10
2022-12-27T23:53:45.652Z,8.40
2022-12-27T23:57:20.079Z,7.97
